METAR Analyzer

一覧表示

Hello, Guest. (Login)

ZBAA/PEK  -  北京首都

観測日時
2022-09-30 07:00 (UTC) (23分前)
気温
29
露点
16
湿数
13
相対湿度
45.4%
QNH
1009hPa
推定現地気圧
1004.8hPa
推定海面気圧
1008.8hPa
体感温度
23.1
(無風時)
25.7
HI
29.1
気温前日比
-1
体感温度前日比
-0.4
HI前日比
-0.9
水平視程
6000m
鉛直視程
データなし
雲底高度
データなし
V/I
判定不可
RVR
No RVR data
卓越風
2m/s from 130° (100° ~ 160°)
ガスト
No gust
降水
報告なし
その他の天気
NSC
報告なし

ZBAA 300700Z 13002MPS 100V160 6000 NSC 29/16 Q1009 NOSIG

ZSPD/PVG  -  上海浦東

観測日時
2022-09-30 07:00 (UTC) (23分前)
気温
25
露点
22
湿数
3
相対湿度
83.5%
QNH
1013hPa
推定現地気圧
1012.5hPa
推定海面気圧
1013.0hPa
体感温度
19.1
(無風時)
25.2
HI
25.7
気温前日比
-1
体感温度前日比
-1.3
HI前日比
-0.9
水平視程
>10000m
鉛直視程
データなし
雲底高度
1500ft AGL
V/I
VMC (VFR)
RVR
No RVR data
卓越風
5m/s from 130°
ガスト
No gust
降水
報告なし
その他の天気
報告なし
隙間のある雲 @ 1500ft AGL / 全天を覆う雲 @ 3300ft AGL

ZSPD 300700Z 13005MPS 9999 BKN015 OVC033 25/22 Q1013 NOSIG

ZSSS/SHA  -  上海虹橋

観測日時
2022-09-30 07:00 (UTC) (23分前)
気温
27
露点
22
湿数
5
相対湿度
74.1%
QNH
1013hPa
推定現地気圧
1012.6hPa
推定海面気圧
1012.9hPa
体感温度
22.1
(無風時)
26.2
HI
29.2
気温前日比
+1
体感温度前日比
+0.1
HI前日比
+2.9
水平視程
>10000m
鉛直視程
データなし
雲底高度
2000ft AGL
V/I
VMC (VFR)
RVR
No RVR data
卓越風
3m/s from 110° (80° ~ 150°)
ガスト
No gust
降水
報告なし
その他の天気
報告なし
隙間のある雲 @ 2000ft AGL / 隙間のある雲 @ 4000ft AGL

ZSSS 300700Z 11003MPS 080V150 9999 BKN020 BKN040 27/22 Q1013 NOSIG

ZSAM/XMN  -  アモイ/廈門高崎

観測日時
2022-09-30 07:00 (UTC) (23分前)
気温
32
露点
24
湿数
8
相対湿度
62.7%
QNH
1012hPa
推定現地気圧
1009.8hPa
推定海面気圧
1011.8hPa
体感温度
26.9
(無風時)
29.2
HI
37.9
気温前日比
±0
体感温度前日比
±0
HI前日比
±0
水平視程
>10000m
鉛直視程
データなし
雲底高度
No dense clouds
V/I
VMC (VFR)
RVR
No RVR data
卓越風
5m/s from 110° (60° ~ 150°)
ガスト
No gust
降水
報告なし
その他の天気
報告なし
報告なし

ZSAM 300700Z 11005MPS 060V150 CAVOK 32/24 Q1012 NOSIG

ZGSZ/SZX  -  深圳宝安

観測日時
2022-09-30 07:00 (UTC) (23分前)
気温
26
露点
24
湿数
2
相対湿度
88.8%
QNH
1011hPa
推定現地気圧
1010.5hPa
推定海面気圧
1011.0hPa
体感温度
21.6
(無風時)
26.4
HI
27
気温前日比
-7
体感温度前日比
-5.1
HI前日比
-9.1
水平視程
8000m
鉛直視程
データなし
雲底高度
4000ft AGL
V/I
VMC (VFR)
RVR
No RVR data
卓越風
3m/s from 110°
ガスト
No gust
降水
弱いしゅう雨性の雨
その他の天気
報告なし
少しの雲 @ 1500ft AGL / 少しの積乱雲 @ 3000ft AGL / 隙間のある雲 @ 4000ft AGL

ZGSZ 300700Z 11003MPS 8000 -SHRA FEW015 FEW030CB BKN040 26/24 Q1011 RESHRA BECMG AT0740 SHRA

VHHH/HKG  -  香港

観測日時
2022-09-30 07:00 (UTC) (23分前)
気温
26
露点
24
湿数
2
相対湿度
88.8%
QNH
1011hPa
推定現地気圧
1009.9hPa
推定海面気圧
1010.9hPa
体感温度
20.3
(無風時)
26.4
HI
27
気温前日比
-5
体感温度前日比
-4.7
HI前日比
-7.6
水平視程
>10000m / 一時 2500m
鉛直視程
データなし
雲底高度
4500ft AGL
V/I
VMC (VFR)
RVR
No RVR data
卓越風
12kt from 100° / 一時 15kt from 100°
ガスト
一時 25kt
降水
中程度のしゅう雨性の雨
降水 (一時)
中程度の雨 および 雷 / 中程度のしゅう雨性の雨
その他の天気
報告なし
その他の天気 (一時)
少しの雲 @ 600ft AGL / 少しの積乱雲 @ 1000ft AGL / 散在する雲 @ 1800ft AGL / 隙間のある雲 @ 4500ft AGL

VHHH 300700Z 10012KT 9999 SHRA FEW006 FEW010CB SCT018 BKN045 26/24 Q1011 TEMPO 10015G25KT 2500 TSRA SHRA FEW010CB SCT020

RCTP/TPE  -  台湾桃園

観測日時
2022-09-30 07:00 (UTC) (23分前)
気温
33
露点
24
湿数
9
相対湿度
59.3%
QNH
1011.5hPa
推定現地気圧
1007.5hPa
推定海面気圧
1011.2hPa
体感温度
27.8
(無風時)
29.7
HI
39.3
気温前日比
±0
体感温度前日比
-0.3
HI前日比
±0
水平視程
>10000m
鉛直視程
データなし
雲底高度
No dense clouds
V/I
VMC (VFR)
RVR
No RVR data
卓越風
9kt from 10°
ガスト
No gust
降水
報告なし
その他の天気
報告なし
少しの雲 @ 2000ft AGL

RCTP 300700Z 01009KT 9999 FEW020 33/24 Q1011 NOSIG RMK A2987

RCSS/TSA  -  台北松山

観測日時
2022-09-30 07:00 (UTC) (23分前)
気温
34
露点
21
湿数
13
相対湿度
46.7%
QNH
1011.5hPa
推定現地気圧
1010.9hPa
推定海面気圧
1011.5hPa
体感温度
27.8
(無風時)
29.2
HI
37.3
気温前日比
-2
体感温度前日比
-2.8
HI前日比
-5.9
水平視程
>10000m
鉛直視程
データなし
雲底高度
No dense clouds
V/I
VMC (VFR)
RVR
No RVR data
卓越風
12kt from 120° (100° ~ 160°)
ガスト
No gust
降水
報告なし
その他の天気
報告なし
少しの雲 @ 2500ft AGL

RCSS 300700Z 12012KT 100V160 9999 FEW025 34/21 Q1011 NOSIG RMK A2987

RCKH/KHH  -  高雄

観測日時
2022-09-30 07:00 (UTC) (23分前)
気温
31
露点
24
湿数
7
相対湿度
66.4%
QNH
1011.2hPa
推定現地気圧
1010.1hPa
推定海面気圧
1011.1hPa
体感温度
25.7
(無風時)
28.8
HI
36.5
気温前日比
±0
体感温度前日比
±0
HI前日比
+1
水平視程
>10000m
鉛直視程
データなし
雲底高度
22000ft AGL
V/I
VMC (VFR)
RVR
No RVR data
卓越風
12kt from 280°
ガスト
No gust
降水
報告なし
その他の天気
報告なし
少しの雲 @ 1400ft AGL / 散在する雲 @ 3800ft AGL / 隙間のある雲 @ 22000ft AGL

RCKH 300700Z 28012KT 9999 FEW014 SCT038 BKN220 31/24 Q1011 NOSIG RMK 27012KT/R09 A2986

136.3msec